Time;durP1;ratioP1;P1;durP2;ratioP2;P2;SDS_P1;SDS_P2;PMS_P1;PMS_P2;Temp;Humidity;BMP_temperature;BMP_pressure;BME280_temperature;BME280_humidity;BME280_pressure;Samples;Min_cycle;Max_cycle;Signal;HPM_P1;HPM_P2
2022/06/03 00:01:59;;;;;;;2.20;1.10;;;;;;;18.76;44.38;99204.97;5094951;28;20043;-70
2022/06/03 00:04:53;;;;;;;1.42;0.90;;;;;;;18.91;44.01;99199.16;5100241;28;20051;-71
2022/06/03 00:08:00;;;;;;;2.25;1.00;;;;;;;18.67;45.22;99206.69;5103141;28;20077;-71
2022/06/03 00:10:53;;;;;;;1.00;0.90;;;;;;;18.68;45.08;99203.06;5091087;28;20161;-71
2022/06/03 00:14:12;;;;;;;2.25;1.17;;;;;;;18.62;45.44;99206.31;5092262;28;20047;-70
2022/06/03 00:17:05;;;;;;;1.45;1.20;;;;;;;18.69;45.78;99217.13;5095519;28;20044;-70
2022/06/03 00:20:18;;;;;;;1.50;1.20;;;;;;;18.64;44.74;99220.25;5100594;28;20375;-70
2022/06/03 00:23:06;;;;;;;1.60;1.00;;;;;;;18.87;44.03;99213.72;5099231;28;20363;-71
2022/06/03 00:26:27;;;;;;;1.00;0.82;;;;;;;18.77;44.45;99219.91;5109828;28;20450;-71
2022/06/03 00:29:24;;;;;;;2.92;0.90;;;;;;;18.73;42.71;99217.69;5102520;28;20104;-72
2022/06/03 00:32:54;;;;;;;1.20;0.93;;;;;;;18.95;43.82;99219.94;5089222;28;20036;-72
2022/06/03 00:36:00;;;;;;;1.15;0.85;;;;;;;18.92;42.29;99222.06;5090611;28;20567;-71
2022/06/03 00:39:07;;;;;;;2.58;1.08;;;;;;;18.89;41.85;99219.69;5110973;28;20043;-71
2022/06/03 00:42:04;;;;;;;2.63;0.98;;;;;;;18.83;41.71;99226.44;5097361;28;20036;-71
2022/06/03 00:45:14;;;;;;;1.13;0.90;;;;;;;18.96;42.68;99223.44;5104252;28;20074;-71
2022/06/03 00:48:30;;;;;;;1.10;0.90;;;;;;;19.13;42.34;99219.16;5103094;28;20109;-71
2022/06/03 00:51:32;;;;;;;4.00;1.15;;;;;;;18.76;42.97;99243.94;5079253;28;20047;-71
2022/06/03 00:54:23;;;;;;;1.50;1.10;;;;;;;18.81;43.35;99252.28;5113116;28;20075;-71
2022/06/03 00:57:18;;;;;;;2.65;1.08;;;;;;;18.95;43.78;99251.78;5098948;28;20036;-72
2022/06/03 01:00:21;;;;;;;1.58;0.90;;;;;;;19.02;44.64;99241.44;5114022;28;20080;-71
2022/06/03 01:03:18;;;;;;;1.10;1.00;;;;;;;19.13;43.88;99247.56;5098676;28;20123;-71
2022/06/03 01:06:15;;;;;;;1.85;1.13;;;;;;;19.07;42.36;99249.78;5101725;28;20036;-71
2022/06/03 01:09:40;;;;;;;1.33;0.90;;;;;;;19.01;44.70;99249.53;5093913;28;20032;-72
2022/06/03 01:13:05;;;;;;;6.05;1.20;;;;;;;18.85;43.75;99251.00;5092679;28;20143;-72
2022/06/03 01:16:25;;;;;;;1.35;0.98;;;;;;;18.74;42.66;99241.44;5101068;28;20038;-72
2022/06/03 01:19:32;;;;;;;1.40;1.00;;;;;;;18.72;43.17;99240.72;5089792;28;20109;-72
2022/06/03 01:22:47;;;;;;;3.78;1.50;;;;;;;19.13;42.83;99240.41;5105662;28;20463;-71
2022/06/03 01:25:59;;;;;;;1.90;1.30;;;;;;;18.99;43.25;99240.88;5100229;28;20115;-71
2022/06/03 01:29:21;;;;;;;2.75;1.83;;;;;;;18.66;43.22;99241.31;5093202;28;20044;-71
2022/06/03 01:32:31;;;;;;;3.00;1.85;;;;;;;18.57;43.76;99248.34;5086149;28;20047;-71
2022/06/03 01:35:25;;;;;;;2.13;1.63;;;;;;;18.90;43.07;99237.31;5101291;28;20039;-71
2022/06/03 01:38:24;;;;;;;2.85;2.03;;;;;;;18.65;43.29;99247.63;5106138;28;20043;-71
2022/06/03 01:41:29;;;;;;;2.55;1.27;;;;;;;18.63;44.58;99245.13;5112135;28;20116;-70
2022/06/03 01:44:36;;;;;;;2.85;1.92;;;;;;;18.55;44.47;99253.81;5113418;28;20055;-71
2022/06/03 01:47:24;;;;;;;5.05;1.60;;;;;;;18.55;44.55;99245.00;5102878;28;20105;-71
2022/06/03 01:50:47;;;;;;;2.17;1.63;;;;;;;18.56;45.42;99239.56;5107272;28;20044;-71
2022/06/03 01:53:57;;;;;;;1.40;1.17;;;;;;;18.55;45.59;99237.03;5089072;28;20047;-71
2022/06/03 01:57:15;;;;;;;2.42;1.30;;;;;;;18.51;43.84;99244.44;5085042;28;20058;-71
2022/06/03 02:00:24;;;;;;;1.88;1.17;;;;;;;18.74;44.52;99236.13;5100260;28;20050;-71
2022/06/03 02:03:34;;;;;;;2.80;1.38;;;;;;;18.31;44.02;99223.28;5090623;28;20201;-71
2022/06/03 02:06:53;;;;;;;1.95;1.20;;;;;;;18.34;45.90;99233.59;5076669;28;20097;-72
2022/06/03 02:10:15;;;;;;;3.03;0.95;;;;;;;18.22;45.30;99229.47;5090744;28;20044;-72
2022/06/03 02:13:37;;;;;;;2.33;1.13;;;;;;;18.05;44.68;99228.38;5104238;28;20175;-71
2022/06/03 02:16:40;;;;;;;1.30;1.05;;;;;;;17.98;46.24;99222.81;5095320;28;20146;-71
2022/06/03 02:19:55;;;;;;;1.58;1.00;;;;;;;18.02;45.71;99216.22;5089809;28;20051;-72
2022/06/03 02:22:51;;;;;;;4.30;1.27;;;;;;;17.73;44.61;99219.75;5084389;28;20043;-72
2022/06/03 02:25:55;;;;;;;6.10;1.27;;;;;;;17.64;45.40;99220.59;5093225;28;20079;-72
2022/06/03 02:32:20;;;;;;;1.15;1.00;;;;;;;17.52;46.68;99212.81;5093244;28;20122;-72
2022/06/03 02:35:17;;;;;;;1.70;0.93;;;;;;;17.35;45.61;99207.22;5092728;28;20113;-73
2022/06/03 02:38:02;;;;;;;3.75;1.40;;;;;;;17.38;45.67;99210.56;5109672;28;20376;-72
2022/06/03 02:40:56;;;;;;;3.85;1.10;;;;;;;17.41;44.82;99205.84;5092361;28;20043;-73
2022/06/03 02:44:19;;;;;;;2.70;1.10;;;;;;;17.33;45.29;99203.84;5109598;28;20432;-73
2022/06/03 02:47:42;;;;;;;1.52;1.10;;;;;;;17.34;45.14;99207.34;5087384;28;20073;-73
2022/06/03 02:50:30;;;;;;;2.15;1.10;;;;;;;17.38;44.77;99205.28;5104616;28;20039;-72
2022/06/03 02:53:50;;;;;;;2.05;1.20;;;;;;;17.28;44.74;99203.47;5106316;28;20067;-71
2022/06/03 02:57:00;;;;;;;1.88;1.00;;;;;;;17.17;45.29;99196.47;5101452;28;20067;-71
2022/06/03 03:00:05;;;;;;;1.92;1.20;;;;;;;17.16;45.02;99188.66;5110924;28;20547;-72
2022/06/03 03:03:16;;;;;;;2.45;1.20;;;;;;;17.11;44.93;99183.78;5099941;28;20042;-72
2022/06/03 03:06:14;;;;;;;1.30;1.00;;;;;;;17.14;44.71;99186.16;5092232;28;20044;-72
2022/06/03 03:09:21;;;;;;;3.38;1.20;;;;;;;17.16;44.94;99188.66;5099362;28;20043;-73
2022/06/03 03:12:24;;;;;;;1.77;1.30;;;;;;;17.20;44.56;99185.59;5109742;28;20043;-71
2022/06/03 03:15:23;;;;;;;3.58;1.10;;;;;;;17.26;44.44;99184.22;5109773;28;20047;-71
2022/06/03 03:18:26;;;;;;;1.77;1.20;;;;;;;17.34;44.12;99189.66;5110266;28;20085;-71
2022/06/03 03:21:23;;;;;;;1.63;1.17;;;;;;;17.33;43.96;99195.91;5091541;28;20028;-74
2022/06/03 03:24:11;;;;;;;1.60;1.20;;;;;;;17.35;44.02;99199.28;5090747;28;20043;-71
2022/06/03 03:27:12;;;;;;;1.63;1.13;;;;;;;17.41;44.17;99197.03;5106688;28;20031;-71
2022/06/03 03:30:14;;;;;;;1.85;1.25;;;;;;;17.40;43.75;99192.75;5110351;28;20427;-72
2022/06/03 03:33:21;;;;;;;1.35;1.10;;;;;;;17.42;44.08;99201.34;5128102;27;20142;-72
2022/06/03 03:36:24;;;;;;;2.33;1.05;;;;;;;17.47;43.48;99207.06;5102634;28;20159;-72
2022/06/03 03:39:35;;;;;;;1.92;1.00;;;;;;;17.57;43.56;99210.56;5095700;28;20055;-71
2022/06/03 03:42:50;;;;;;;1.77;1.13;;;;;;;17.66;43.24;99216.00;5081905;28;20063;-72
2022/06/03 03:45:57;;;;;;;2.22;1.27;;;;;;;17.79;42.80;99210.41;5096420;28;20040;-71
2022/06/03 03:49:01;;;;;;;2.60;1.25;;;;;;;17.91;42.73;99216.38;5095501;28;20028;-72
2022/06/03 03:52:01;;;;;;;2.40;1.35;;;;;;;18.00;42.29;99212.91;5106200;28;20040;-71
2022/06/03 03:55:00;;;;;;;1.38;1.00;;;;;;;17.98;42.27;99204.25;5092567;28;20059;-72
2022/06/03 03:58:30;;;;;;;3.53;1.20;;;;;;;18.02;41.93;99204.81;5110800;28;20040;-71
2022/06/03 04:01:41;;;;;;;2.95;1.30;;;;;;;18.07;41.52;99203.38;5050088;28;20059;-71
2022/06/03 04:04:43;;;;;;;1.75;1.13;;;;;;;18.13;41.79;99201.19;5090060;28;20173;-71
2022/06/03 04:07:53;;;;;;;1.95;1.10;;;;;;;18.18;41.17;99206.88;5089794;28;20052;-71
2022/06/03 04:11:09;;;;;;;2.38;1.42;;;;;;;18.22;41.55;99214.41;5109387;28;20069;-71
2022/06/03 04:14:21;;;;;;;2.67;1.30;;;;;;;18.28;41.13;99228.06;5104878;28;20037;-71
2022/06/03 04:17:15;;;;;;;1.75;1.10;;;;;;;18.37;41.40;99221.91;5100776;28;20063;-71
2022/06/03 04:20:12;;;;;;;1.83;1.27;;;;;;;18.39;41.33;99227.91;5107362;28;20107;-70
2022/06/03 04:23:27;;;;;;;1.30;1.00;;;;;;;18.38;41.62;99212.13;5095546;28;20044;-70
2022/06/03 04:26:41;;;;;;;2.20;1.30;;;;;;;18.44;41.09;99219.50;5113878;28;20532;-71
2022/06/03 04:29:48;;;;;;;1.73;1.17;;;;;;;18.42;41.03;99226.75;5105843;28;20070;-71
2022/06/03 04:32:57;;;;;;;3.40;1.15;;;;;;;18.46;41.42;99244.03;5106171;28;20051;-71
2022/06/03 04:36:15;;;;;;;2.90;0.90;;;;;;;18.43;41.13;99249.63;5112115;28;20054;-70
2022/06/03 04:39:07;;;;;;;4.03;1.30;;;;;;;18.56;41.04;99239.56;5113888;28;20074;-70
2022/06/03 04:42:07;;;;;;;2.78;1.08;;;;;;;18.69;40.83;99248.97;5109367;28;20126;-71
2022/06/03 04:45:07;;;;;;;1.65;1.27;;;;;;;18.57;41.47;99256.31;5109188;28;20051;-70
2022/06/03 04:48:04;;;;;;;5.80;1.65;;;;;;;18.54;41.83;99257.41;5103369;28;20115;-72
2022/06/03 04:51:25;;;;;;;1.48;1.10;;;;;;;18.46;41.73;99254.66;5094222;28;20047;-70
2022/06/03 04:54:39;;;;;;;2.30;1.40;;;;;;;18.43;42.62;99263.75;5098572;28;20139;-71
2022/06/03 04:58:01;;;;;;;2.78;1.30;;;;;;;18.57;42.14;99265.09;5109680;28;20059;-72
2022/06/03 05:01:09;;;;;;;2.13;1.23;;;;;;;18.55;42.01;99276.84;5111234;28;20035;-72
2022/06/03 05:04:06;;;;;;;2.67;1.30;;;;;;;18.41;42.16;99276.31;5097702;28;20140;-72
2022/06/03 05:07:21;;;;;;;2.08;1.45;;;;;;;18.32;43.12;99283.31;5105640;28;20046;-71
2022/06/03 05:10:34;;;;;;;5.03;1.50;;;;;;;18.12;43.26;99281.63;5112648;28;20363;-72
2022/06/03 05:13:38;;;;;;;2.50;1.30;;;;;;;18.58;42.95;99287.16;5102747;28;20379;-71
2022/06/03 05:17:00;;;;;;;3.20;1.92;;;;;;;18.70;42.43;99288.63;5093125;28;20040;-70
2022/06/03 05:20:06;;;;;;;3.53;1.70;;;;;;;18.49;43.35;99283.53;5093288;28;20397;-71
2022/06/03 05:23:29;;;;;;;1.73;1.50;;;;;;;18.49;43.55;99282.72;5107650;28;20421;-71
2022/06/03 05:26:55;;;;;;;3.50;1.58;;;;;;;18.94;42.76;99284.66;5109846;28;20055;-71
2022/06/03 05:30:16;;;;;;;1.65;1.52;;;;;;;18.84;43.11;99294.47;5112605;28;20039;-71
2022/06/03 05:33:17;;;;;;;2.05;1.40;;;;;;;18.76;43.67;99297.00;5094137;28;20028;-72
2022/06/03 05:36:39;;;;;;;2.10;1.30;;;;;;;18.82;43.71;99296.41;5140517;27;20050;-71
2022/06/03 05:39:25;;;;;;;3.05;1.63;;;;;;;19.11;43.05;99295.47;5103829;28;20101;-72
2022/06/03 05:42:33;;;;;;;2.90;1.48;;;;;;;19.01;43.55;99292.84;5098066;28;20046;-71
2022/06/03 05:45:55;;;;;;;6.20;1.38;;;;;;;19.11;44.12;99289.34;5076682;28;20067;-71
2022/06/03 05:49:16;;;;;;;;;;;;;;;19.24;44.41;99302.28;5107631;28;20467;-71
2022/06/03 05:52:21;;;;;;;;;;;;;;;19.31;45.00;99305.97;5046697;28;20395;-72
2022/06/03 05:55:30;;;;;;;2.53;1.80;;;;;;;19.18;46.24;99306.34;5109710;28;20362;-71
2022/06/03 05:58:22;;;;;;;5.10;1.85;;;;;;;19.18;46.85;99304.53;5110931;28;20424;-71
2022/06/03 06:01:40;;;;;;;3.70;1.73;;;;;;;19.22;46.50;99291.78;5111156;28;20039;-71
2022/06/03 06:04:28;;;;;;;3.08;1.38;;;;;;;19.52;46.15;99297.75;5077324;28;20055;-70
2022/06/03 06:07:39;;;;;;;2.33;1.70;;;;;;;19.60;46.98;99296.97;5082868;28;20059;-72
2022/06/03 06:11:03;;;;;;;3.10;2.00;;;;;;;19.81;47.08;99294.03;5103814;28;20046;-72
2022/06/03 06:13:52;;;;;;;3.05;1.85;;;;;;;19.53;48.59;99291.47;5093170;28;20104;-72
2022/06/03 06:16:41;;;;;;;3.25;1.95;;;;;;;19.64;47.90;99300.19;5108084;28;20461;-71
2022/06/03 06:19:42;;;;;;;3.90;1.88;;;;;;;19.75;47.12;99291.97;5091392;28;20394;-71
2022/06/03 06:22:36;;;;;;;4.43;2.58;;;;;;;20.11;46.56;99304.44;5112041;28;20036;-72
2022/06/03 06:25:52;;;;;;;4.18;2.13;;;;;;;19.83;47.54;99293.88;5110740;28;20051;-72
2022/06/03 06:28:59;;;;;;;6.10;2.15;;;;;;;19.92;47.48;99294.78;5101607;28;20066;-71
2022/06/03 06:32:15;;;;;;;2.92;2.20;;;;;;;20.78;46.05;99308.34;5100632;28;20040;-72
2022/06/03 06:35:31;;;;;;;3.55;2.28;;;;;;;20.29;46.59;99298.25;5096860;28;20039;-74
2022/06/03 06:38:47;;;;;;;6.22;2.67;;;;;;;20.42;46.81;99290.69;5095837;28;20479;-71
2022/06/03 06:41:54;;;;;;;3.88;2.50;;;;;;;20.77;46.39;99284.56;5112717;28;20071;-71
2022/06/03 06:45:14;;;;;;;5.05;2.22;;;;;;;21.46;44.95;99280.97;5084654;28;20040;-72
2022/06/03 06:48:21;;;;;;;3.15;2.15;;;;;;;21.61;45.04;99273.16;5081671;28;20052;-72
2022/06/03 06:51:29;;;;;;;5.68;2.58;;;;;;;21.31;45.86;99274.63;5105602;27;20032;-71
2022/06/03 06:54:22;;;;;;;4.53;2.53;;;;;;;20.68;47.73;99275.69;5084137;28;20060;-70
2022/06/03 06:57:23;;;;;;;2.72;2.08;;;;;;;20.65;48.12;99266.22;5092191;28;20040;-72
2022/06/03 07:00:24;;;;;;;4.82;2.33;;;;;;;20.83;48.04;99264.44;5100712;27;20048;-72
2022/06/03 07:03:28;;;;;;;5.85;2.28;;;;;;;20.91;47.86;99269.78;5075857;28;20124;-70
2022/06/03 07:06:21;;;;;;;3.08;2.17;;;;;;;20.99;47.94;99269.06;5099145;28;20394;-71
2022/06/03 07:09:12;;;;;;;3.30;2.30;;;;;;;21.71;46.52;99273.00;5093775;28;20059;-71
2022/06/03 07:12:12;;;;;;;4.78;2.33;;;;;;;22.74;44.44;99274.41;5099963;28;20078;-71
2022/06/03 07:15:14;;;;;;;4.10;2.10;;;;;;;21.99;46.17;99278.06;5099914;28;20044;-72
2022/06/03 07:22:04;;;;;;;3.05;2.22;;;;;;;21.93;46.80;99260.06;5104581;28;20036;-70
2022/06/03 07:25:03;;;;;;;2.75;2.05;;;;;;;21.98;46.68;99259.56;5089974;28;20047;-70
2022/06/03 07:28:09;;;;;;;6.43;2.50;;;;;;;22.26;46.76;99253.84;5104206;28;20490;-70
2022/06/03 07:30:55;;;;;;;3.97;2.10;;;;;;;22.24;46.38;99248.69;5100055;28;20028;-69
2022/06/03 07:33:57;;;;;;;4.50;2.30;;;;;;;22.26;46.27;99252.00;5079618;28;20040;-71
2022/06/03 07:37:09;;;;;;;2.72;1.80;;;;;;;22.33;46.47;99245.97;5093956;28;20384;-72
2022/06/03 07:39:59;;;;;;;4.57;2.50;;;;;;;22.70;46.28;99246.41;5105178;28;20032;-67
2022/06/03 07:43:09;;;;;;;4.20;2.37;;;;;;;23.17;44.97;99251.84;5090544;28;20106;-69
2022/06/03 07:46:06;;;;;;;3.72;2.60;;;;;;;22.59;45.66;99253.75;5099097;28;20101;-68
2022/06/03 07:48:52;;;;;;;6.70;2.92;;;;;;;22.93;45.30;99249.13;5091316;28;20044;-69
2022/06/03 07:51:43;;;;;;;4.88;2.20;;;;;;;23.63;43.04;99245.75;5089413;28;20526;-68
2022/06/03 07:54:29;;;;;;;;;;;;;;;24.06;42.33;99245.19;5099333;28;20051;-70
2022/06/03 07:57:22;;;;;;;5.82;2.63;;;;;;;23.72;41.96;99244.66;5081794;28;20007;-69
2022/06/03 08:00:15;;;;;;;2.58;1.98;;;;;;;24.07;42.17;99246.03;5103001;28;20043;-69
2022/06/03 08:03:13;;;;;;;4.68;2.40;;;;;;;24.60;40.54;99250.50;5095926;28;20047;-69
2022/06/03 08:06:03;;;;;;;4.88;2.25;;;;;;;24.36;41.18;99255.13;5121654;27;20047;-69
2022/06/03 08:11:53;;;;;;;4.72;2.40;;;;;;;23.58;42.97;99261.47;5111505;28;20096;-68
2022/06/03 08:14:38;;;;;;;5.40;2.45;;;;;;;23.28;43.51;99259.47;5112500;28;20080;-72
2022/06/03 08:17:26;;;;;;;4.15;2.33;;;;;;;24.07;41.41;99262.09;5095850;28;20071;-69
2022/06/03 08:20:10;;;;;;;3.25;2.28;;;;;;;24.24;41.54;99255.59;5098850;28;20052;-69
2022/06/03 08:22:56;;;;;;;7.50;2.47;;;;;;;24.82;40.90;99262.16;5097664;28;20027;-70
2022/06/03 08:25:43;;;;;;;3.72;2.60;;;;;;;25.41;39.89;99256.00;5106144;28;20066;-72
2022/06/03 08:28:32;;;;;;;5.38;2.47;;;;;;;25.63;39.37;99253.34;5107937;28;20039;-71
2022/06/03 08:31:21;;;;;;;4.18;2.17;;;;;;;25.48;39.24;99259.56;5111036;28;20043;-68
2022/06/03 08:34:22;;;;;;;5.03;2.10;;;;;;;25.50;39.51;99256.69;5098917;28;20032;-69
2022/06/03 08:37:13;;;;;;;5.00;2.42;;;;;;;25.77;38.49;99244.38;5114815;28;20039;-71
2022/06/03 08:40:02;;;;;;;3.13;2.15;;;;;;;25.97;38.29;99250.97;5097871;28;20391;-72
2022/06/03 08:42:52;;;;;;;7.53;2.25;;;;;;;26.61;37.93;99245.59;5095870;28;20147;-70
2022/06/03 08:45:47;;;;;;;;;;;;;;;25.97;37.25;99237.56;5094858;28;20160;-70
2022/06/03 08:48:37;;;;;;;4.07;2.30;;;;;;;25.73;39.28;99237.78;5101803;28;19930;-70
2022/06/03 08:51:46;;;;;;;4.50;2.23;;;;;;;25.04;40.06;99256.84;5110315;28;20120;-68
2022/06/03 08:54:42;;;;;;;1.92;1.73;;;;;;;25.39;39.82;99256.22;5109940;28;20044;-69
2022/06/03 08:57:45;;;;;;;4.35;2.22;;;;;;;25.83;38.50;99253.53;5097771;28;20391;-69
2022/06/03 09:00:48;;;;;;;4.72;2.15;;;;;;;26.38;38.12;99263.66;5096636;28;20098;-68
2022/06/03 09:03:45;;;;;;;3.15;2.38;;;;;;;26.71;37.24;99253.28;5101907;28;20364;-68
2022/06/03 09:07:03;;;;;;;4.25;2.60;;;;;;;26.37;37.97;99253.13;5106070;28;20044;-69
2022/06/03 09:09:54;;;;;;;3.20;2.10;;;;;;;27.25;37.07;99257.03;5094407;28;20318;-69
2022/06/03 09:12:45;;;;;;;;;;;;;;;26.75;37.92;99250.00;5110361;28;20535;-68
2022/06/03 09:15:36;;;;;;;5.70;2.25;;;;;;;26.90;36.71;99257.06;5103913;28;19969;-69
2022/06/03 09:18:29;;;;;;;2.53;1.70;;;;;;;28.07;34.25;99251.72;5091519;28;20043;-69
2022/06/03 09:21:21;;;;;;;2.15;1.95;;;;;;;27.22;35.22;99256.59;5102862;28;20042;-70
2022/06/03 09:24:11;;;;;;;7.10;2.00;;;;;;;27.42;34.91;99241.31;5086534;28;20040;-68
2022/06/03 09:27:02;;;;;;;6.53;1.58;;;;;;;28.00;34.26;99230.19;5092672;28;20230;-69
2022/06/03 09:29:51;;;;;;;3.17;2.20;;;;;;;27.98;34.41;99234.94;5092535;28;20127;-67
2022/06/03 09:32:44;;;;;;;2.50;1.65;;;;;;;28.10;34.70;99232.47;5103039;28;20057;-69
2022/06/03 09:35:29;;;;;;;2.92;2.05;;;;;;;27.10;36.03;99233.00;5096659;28;20071;-68
2022/06/03 09:38:18;;;;;;;19.20;2.63;;;;;;;28.14;33.58;99236.38;5105135;28;20043;-69
2022/06/03 09:41:03;;;;;;;2.20;1.45;;;;;;;27.65;34.50;99228.50;5111409;28;20028;-68
2022/06/03 09:43:53;;;;;;;2.03;1.70;;;;;;;27.95;34.50;99251.50;5111771;28;20028;-69
2022/06/03 09:46:42;;;;;;;1.60;1.48;;;;;;;28.55;34.26;99239.00;5098327;28;20479;-69
2022/06/03 09:49:30;;;;;;;3.17;1.60;;;;;;;28.93;33.79;99246.31;5091617;28;20044;-68
2022/06/03 09:52:20;;;;;;;2.25;1.60;;;;;;;27.67;35.56;99247.97;5095402;28;20119;-68
2022/06/03 09:55:23;;;;;;;2.77;1.80;;;;;;;27.22;35.60;99238.63;5070266;28;1151093;-69
2022/06/03 09:58:15;;;;;;;2.25;1.77;;;;;;;27.56;35.68;99227.91;5091500;28;20326;-69
2022/06/03 10:01:03;;;;;;;4.85;1.60;;;;;;;28.37;34.24;99218.94;5109241;28;20031;-69
2022/06/03 10:03:55;;;;;;;3.65;1.85;;;;;;;28.14;34.74;99196.81;5109833;28;20040;-68
2022/06/03 10:06:43;;;;;;;2.55;2.17;;;;;;;28.25;35.16;99208.00;5081948;28;20044;-69
2022/06/03 10:12:49;;;;;;;2.75;1.92;;;;;;;29.89;33.12;99196.09;5112203;28;20035;-69
2022/06/03 10:15:42;;;;;;;2.85;1.60;;;;;;;29.30;33.25;99190.97;5111822;28;20035;-68
2022/06/03 10:18:36;;;;;;;5.75;1.65;;;;;;;28.19;35.25;99181.91;5099977;28;20043;-68
2022/06/03 10:21:21;;;;;;;3.58;1.85;;;;;;;28.94;33.99;99177.88;5092084;28;20066;-68
2022/06/03 10:24:06;;;;;;;2.75;1.85;;;;;;;28.38;35.38;99169.47;5094001;28;20116;-67
2022/06/03 10:26:57;;;;;;;4.72;1.77;;;;;;;28.26;34.95;99172.78;5094633;28;20038;-69
2022/06/03 10:29:48;;;;;;;2.50;1.52;;;;;;;29.23;33.73;99175.63;5095688;28;20036;-68
2022/06/03 10:32:34;;;;;;;;;;;;;;;29.51;33.71;99182.50;5098027;28;20055;-68
2022/06/03 10:35:26;;;;;;;2.80;1.92;;;;;;;28.98;33.95;99167.53;5112426;28;19923;-69
2022/06/03 10:38:16;;;;;;;4.18;1.70;;;;;;;29.30;33.83;99177.50;5106341;28;20043;-69
2022/06/03 10:41:09;;;;;;;2.53;1.50;;;;;;;30.21;32.37;99162.78;5090040;28;20467;-68
2022/06/03 10:43:54;;;;;;;2.38;1.50;;;;;;;29.46;33.22;99168.81;5096115;28;20055;-67
2022/06/03 10:47:23;;;;;;;2.10;1.60;;;;;;;29.44;33.25;99164.72;5111579;28;20039;-68
2022/06/03 10:50:33;;;;;;;3.28;1.63;;;;;;;29.38;33.09;99172.63;5078791;28;20052;-67
2022/06/03 11:02:38;;;;;;;1.63;1.38;;;;;;;29.67;32.86;99145.25;5104401;28;20036;-67
2022/06/03 11:05:28;;;;;;;2.97;1.35;;;;;;;29.87;32.51;99142.34;5092388;28;20040;-67
2022/06/03 11:08:13;;;;;;;1.40;1.10;;;;;;;30.01;31.46;99163.78;5104829;28;20453;-66
2022/06/03 11:10:59;;;;;;;1.98;1.45;;;;;;;28.88;33.54;99147.25;5097818;28;20039;-66
2022/06/03 11:13:43;;;;;;;1.38;1.15;;;;;;;29.92;32.57;99144.34;5091087;28;20047;-67
2022/06/03 11:16:28;;;;;;;1.60;1.20;;;;;;;30.27;32.29;99131.34;5090343;28;20439;-67
2022/06/03 11:19:20;;;;;;;2.05;1.30;;;;;;;30.04;32.39;99130.94;5101460;28;20431;-67
2022/06/03 11:22:11;;;;;;;2.95;1.42;;;;;;;30.22;31.98;99130.16;5091078;28;20040;-66
2022/06/03 11:25:22;;;;;;;3.55;1.65;;;;;;;30.36;31.52;99120.00;5091268;28;20081;-69
2022/06/03 11:28:16;;;;;;;2.03;1.50;;;;;;;30.40;31.95;99119.53;5090458;28;20054;-66
2022/06/03 11:31:05;;;;;;;2.92;1.48;;;;;;;29.70;32.30;99111.59;5104072;28;20036;-66
2022/06/03 11:34:14;;;;;;;2.60;1.45;;;;;;;30.22;31.89;99119.34;5105228;28;20070;-66
2022/06/03 11:37:06;;;;;;;1.67;1.20;;;;;;;30.43;31.23;99110.97;5102302;28;20042;-68
2022/06/03 11:40:07;;;;;;;1.42;1.10;;;;;;;29.90;32.53;99095.16;5106704;28;20069;-67
2022/06/03 11:42:57;;;;;;;1.77;1.30;;;;;;;30.47;31.84;99098.66;5098682;28;20126;-68
2022/06/03 11:45:50;;;;;;;2.88;1.25;;;;;;;29.68;32.67;99101.00;5097464;28;20327;-68
2022/06/03 11:48:39;;;;;;;2.05;1.05;;;;;;;29.41;33.56;99106.63;5126400;27;20040;-68
2022/06/03 11:51:25;;;;;;;3.80;1.40;;;;;;;29.81;33.02;99099.22;5099292;28;20483;-68
2022/06/03 11:54:14;;;;;;;2.13;0.80;;;;;;;30.79;31.20;99086.78;5103296;28;20111;-68
2022/06/03 11:57:02;;;;;;;1.80;1.27;;;;;;;30.07;32.54;99095.38;5095951;28;20425;-67
2022/06/03 12:00:09;;;;;;;3.08;1.20;;;;;;;30.68;32.09;99078.41;5088274;28;20360;-66
2022/06/03 12:03:19;;;;;;;1.95;1.17;;;;;;;30.71;31.92;99085.22;5090437;28;20121;-66
2022/06/03 12:06:26;;;;;;;1.40;0.90;;;;;;;30.94;30.84;99072.84;5105324;28;20088;-66
2022/06/03 12:09:40;;;;;;;2.13;1.20;;;;;;;31.04;31.61;99062.28;5099248;28;20040;-67
2022/06/03 12:15:53;;;;;;;2.58;1.15;;;;;;;31.28;30.52;99070.41;5091467;28;20036;-67
2022/06/03 12:19:11;;;;;;;1.40;0.88;;;;;;;31.12;30.97;99060.28;5090444;28;20036;-66
2022/06/03 12:22:14;;;;;;;2.53;1.02;;;;;;;29.27;33.60;99062.78;5105919;28;20048;-67
2022/06/03 12:25:03;;;;;;;1.88;1.30;;;;;;;29.94;33.16;99076.63;5094895;28;20047;-67
2022/06/03 12:27:52;;;;;;;3.58;1.08;;;;;;;30.54;32.04;99056.16;5086700;28;20112;-66
2022/06/03 12:30:45;;;;;;;1.48;1.10;;;;;;;31.26;30.74;99050.06;5075513;28;20047;-67
2022/06/03 12:33:44;;;;;;;2.42;1.30;;;;;;;31.25;30.90;99040.31;5091000;28;20055;-67
2022/06/03 12:36:39;;;;;;;1.60;1.30;;;;;;;30.77;31.66;99048.31;5097258;28;20054;-67
2022/06/03 12:40:04;;;;;;;3.63;1.10;;;;;;;31.45;31.00;99023.75;5102850;28;20452;-67
2022/06/03 12:42:48;;;;;;;1.88;1.17;;;;;;;31.44;30.84;99033.75;5102311;28;20390;-67
2022/06/03 12:45:34;;;;;;;3.05;1.40;;;;;;;31.73;30.53;99035.69;5100851;28;20038;-68
2022/06/03 12:48:43;;;;;;;1.58;0.95;;;;;;;30.96;31.60;99038.31;5114423;28;20035;-68
2022/06/03 12:51:32;;;;;;;1.90;1.02;;;;;;;30.95;31.82;99036.63;5079262;28;20028;-67
2022/06/03 12:54:19;;;;;;;1.58;1.08;;;;;;;31.19;31.27;99028.56;5102049;28;20490;-67
2022/06/03 12:57:09;;;;;;;3.22;1.05;;;;;;;31.03;31.73;99024.66;5103882;28;20046;-66
2022/06/03 13:00:07;;;;;;;1.87;1.33;;;;;;;31.09;31.55;99027.25;5098655;28;20097;-67
2022/06/03 13:02:59;;;;;;;1.92;1.00;;;;;;;30.91;31.75;99020.09;5099796;28;20305;-67
2022/06/03 13:05:52;;;;;;;3.28;1.30;;;;;;;30.36;32.91;99032.72;5099084;28;20042;-66
2022/06/03 13:09:34;;;;;;;2.47;1.20;;;;;;;30.54;32.45;99023.72;5084751;28;20470;-68
2022/06/03 13:11:45;;;;;;;3.05;1.02;;;;;;;30.66;33.10;99015.66;5103533;28;20059;-67
2022/06/03 13:14:32;;;;;;;1.00;0.90;;;;;;;30.31;33.23;99027.19;5097056;28;20039;-67
2022/06/03 13:18:02;;;;;;;1.77;1.00;;;;;;;30.53;33.30;99011.28;5107729;28;20039;-60
2022/06/03 13:21:10;;;;;;;4.13;1.40;;;;;;;30.33;32.59;99008.88;5112564;28;20077;-68
2022/06/03 13:24:24;;;;;;;3.20;1.52;;;;;;;29.80;33.83;99008.50;5104434;28;20047;-68
2022/06/03 13:27:28;;;;;;;1.77;1.10;;;;;;;29.90;33.55;99010.66;5108366;28;20032;-69
2022/06/03 13:30:15;;;;;;;2.28;1.00;;;;;;;30.04;33.64;99014.00;5104997;28;20050;-69
2022/06/03 13:33:12;;;;;;;2.35;1.52;;;;;;;29.88;33.75;98987.41;5104123;28;20043;-69
2022/06/03 13:36:09;;;;;;;2.40;1.10;;;;;;;30.18;33.89;98995.78;5099691;28;20115;-69
2022/06/03 13:38:54;;;;;;;1.65;1.10;;;;;;;30.10;34.37;98997.72;5112082;28;20035;-70
2022/06/03 13:45:03;;;;;;;2.28;1.40;;;;;;;30.02;34.58;98998.03;5073197;28;20051;-69
2022/06/03 13:47:51;;;;;;;;;;;;;;;30.19;34.03;99005.50;5096650;28;20067;-74
2022/06/03 13:50:37;;;;;;;1.30;1.10;;;;;;;30.77;33.60;98997.81;5094728;28;20019;-70
2022/06/03 13:53:30;;;;;;;4.70;1.20;;;;;;;30.54;33.91;98996.72;5094390;28;20126;-72
2022/06/03 13:56:21;;;;;;;2.47;1.30;;;;;;;30.13;33.73;98970.25;5093156;28;20028;-70
2022/06/03 13:59:15;;;;;;;2.95;0.95;;;;;;;29.97;34.14;98968.19;5092730;28;20058;-69
2022/06/03 14:02:02;;;;;;;2.90;1.27;;;;;;;29.80;34.46;98947.28;5112616;27;20040;-70
2022/06/03 14:05:04;;;;;;;1.67;1.02;;;;;;;29.52;34.13;98951.31;5108037;27;20066;-69
2022/06/03 14:08:13;;;;;;;1.23;0.95;;;;;;;29.17;34.55;98949.19;5101865;28;20052;-70
2022/06/03 14:11:06;;;;;;;2.63;1.40;;;;;;;29.76;33.84;98954.16;5101867;28;20119;-69
2022/06/03 14:14:14;;;;;;;2.88;1.00;;;;;;;30.03;33.60;98964.59;5122317;27;20039;-69
2022/06/03 14:17:08;;;;;;;2.28;0.98;;;;;;;29.61;34.37;98965.34;5094742;28;20478;-70
2022/06/03 14:20:08;;;;;;;1.88;1.05;;;;;;;29.56;34.84;98957.88;5094613;28;20024;-70
2022/06/03 14:22:58;;;;;;;2.28;0.82;;;;;;;29.06;35.73;98959.69;5092797;28;20117;-69
2022/06/03 14:25:57;;;;;;;2.47;1.00;;;;;;;28.84;36.50;98956.56;5092548;28;20066;-71
2022/06/03 14:28:59;;;;;;;2.15;0.98;;;;;;;28.72;36.16;98951.88;5094513;28;20395;-73
2022/06/03 14:31:53;;;;;;;1.35;1.00;;;;;;;28.70;36.35;98936.97;5092618;28;20051;-71
2022/06/03 14:34:48;;;;;;;1.60;1.02;;;;;;;28.76;36.11;98930.69;5099632;28;20036;-69
2022/06/03 14:37:59;;;;;;;1.83;1.00;;;;;;;28.89;36.02;98933.25;5100651;28;20040;-69
2022/06/03 14:40:50;;;;;;;3.38;1.10;;;;;;;28.99;36.18;98938.19;5094411;28;20432;-74